Cyril, Oklahoma
Current Conditions -  °F | °C
As of 11:15 AM on Sunday 21 Dec 2014 (Local Time) from KCHK Reporting Station
Haze Haze  
Wind Chill:   Ceiling: Unl
Heat Index:   Visibility: 5mi
Dew Point:   Wind: 18mph
Humidity: 93%   Direction: 170°S
Pressure: 29.93"   Gusts: 23mph
Location:  34.9°N, 98.2°W
Report Text: KCHK 211715Z AUTO 17016G20KT 5SM BR SCT008 SCT075 SCT120 09/08 A2993 RMK AO2
Loading
Personal Weather Stations






























Interactive Weather Map New forecast layout! Learn more

10-Day Weather Forecast

Advertisements
Track Severe Weather on mobile